Lome, Togo

8:28 PM GMT on September 18, 2014 (GMT +0000)
Tokoin | Change Station
CLOSE
Current Station
Airport
Location: Lome,
Elevation: 82 ft
Nearby Weather Stations

Elev 82 ft 6.17 °N, 1.25 °E | Updated 28 minutes ago

Partly Cloudy
Partly Cloudy
77 °F
Feels Like 77 °F
N
7
Wind Variable Wind from SW

Today
High -- | Low -- °F
--% Chance of Precip.
Yesterday
High -- | Low -- °F
Precip. -- in
5:45 AM 5:53 PM
Waning Crescent, 25% visible
Pressure 29.92 in
Visibility 5.0 miles
Clouds Few 1000 ft
Dew Point 73 °F
Humidity 89%
Rainfall 0.00 in
Snow Depth Not available.
UV 0 out of 12
Pollen Not available.
Air Quality Not available.
Flu Activity Not available.
METAR DXXX 182000Z 23006KT 8000 FEW010 25/23 Q1013 NOSIG

More Conditions Fewer Conditions

Pressure 29.92 in
Visibility 5.0 miles
Clouds Few 1000 ft
Dew Point 73 °F
Humidity 89%
Rainfall 0.00 in
Snow Depth Not available.
UV 0 out of 12
Pollen Not available.
Air Quality Not available.
Flu Activity Not available.
METAR DXXX 182000Z 23006KT 8000 FEW010 25/23 Q1013 NOSIG

More Conditions Fewer Conditions

10-Day Weather Forecast

Almanac

Astronomy

Sep. 18, 2014 Rise Set
Actual Time 5:45 AM GMT 5:53 PM GMT
Civil Twilight 5:24 AM GMT 6:13 PM GMT
Nautical Twilight 5:00 AM GMT 6:38 PM GMT
Astronomical Twilight 4:35 AM GMT 7:02 PM GMT
Moon 1:11 AM GMT 1:49 PM GMT
Length of Visible Light 12h 49m
Length of Day
12h 08m
Tomorrow will be 0m 21s shorter.
Waning Crescent, 25% of the Moon is Illuminated
Today
Waning Crescent
Sep 24
New
Oct 1
First Quarter
Oct 8
Full
Oct 15
Last Quarter

Today's Extremes

Country Highs Country Lows

Community

WunderPhotos

Upload Photos

1,754,423 photos uploaded!

WunderBlogs® & News

By Dr. Jeff Masters
Director of Meteorology, Weather Underground
By Kari Strenfel
Meteorologist, Weather Underground
By Christopher C. Burt
Weather Historian, Weather Underground
September 18, 2014
September 18, 2014
September 18, 2014

Nearby

Snow Depth

Not available.

Earthquake Activity

City Distance Mag. Time & Date
No recent earthquake activity has been reported nearby.
Minimum magnitude displayed is 2.5.

Coastal Water Temperatures

Place Temperature
No Stations Reporting

Nearby Weather Stations